< < Back
Terminal Aerodrome Forecast


Current Version              Previous Versions:   1  2  3  4  5  6  7  8  9  

Terminal Aerodrome Forecast

443
FTUS42 KTAE 261700
TAFDHN
TAF
KDHN 261720Z 2618/2718 31010KT P6SM SKC
     FM262100 28008KT P6SM SKC=

Latest METAR

778
SAUS70 KWBC 270900
MTRDHN
METAR KDHN 270853Z AUTO 25006KT 10SM CLR 07/04 A3024 RMK AO2 SLP238
T00720044 51019


USA.gov is the U.S. government's official web portal to all federal, state and local government web resources and services.